ISLAND1 VTBS-VTSM
Flight info
| Callsign | ISLAND1 |
|---|---|
| Flight time | 0h 47m |
| Altitude | 35000 |
| Route | KASNI1F KASNI M757 MABKO W33 UPNEP |
| Aircraft | B738/M-SDE2E3FGHIRWXY/LB1 |
Departure
| Time | 2026-05-07 21:25 |
|---|---|
| Airport | Suvarnabhumi Airport (VTBS) |
Arrival
| Time | 2026-05-07 22:12 |
|---|---|
| Airport | Samui International Airport (VTSM) |
| Time | Latitude | Longitude | Altitude | Speed | Heading |
|---|---|---|---|---|---|
| 2026-05-07 20:55 | 13.70670 | 100.74792 | 12 ft | 0 kts | 104° |
| 2026-05-07 21:09 | 13.70673 | 100.74782 | 12 ft | 3 kts | 104° |
| 2026-05-07 21:10 | 13.70678 | 100.74762 | 16 ft | 3 kts | 104° |
| 2026-05-07 21:10 | 13.70682 | 100.74744 | 14 ft | 3 kts | 107° |
| 2026-05-07 21:10 | 13.70690 | 100.74726 | 12 ft | 3 kts | 131° |
| 2026-05-07 21:10 | 13.70705 | 100.74714 | 15 ft | 3 kts | 160° |
| 2026-05-07 21:11 | 13.70724 | 100.74710 | 13 ft | 3 kts | 181° |
| 2026-05-07 21:11 | 13.70744 | 100.74712 | 13 ft | 3 kts | 192° |
| 2026-05-07 21:11 | 13.70774 | 100.74720 | 13 ft | 3 kts | 194° |
| 2026-05-07 21:12 | 13.70786 | 100.74723 | 13 ft | 0 kts | 194° |
| 2026-05-07 21:14 | 13.70778 | 100.74720 | 14 ft | 3 kts | 199° |
| 2026-05-07 21:15 | 13.70745 | 100.74709 | 15 ft | 6 kts | 195° |
| 2026-05-07 21:15 | 13.70697 | 100.74696 | 12 ft | 8 kts | 194° |
| 2026-05-07 21:15 | 13.70637 | 100.74681 | 14 ft | 8 kts | 194° |
| 2026-05-07 21:15 | 13.70573 | 100.74665 | 12 ft | 11 kts | 195° |
| 2026-05-07 21:16 | 13.70472 | 100.74638 | 12 ft | 19 kts | 194° |
| 2026-05-07 21:16 | 13.70319 | 100.74597 | 12 ft | 25 kts | 194° |
| 2026-05-07 21:16 | 13.70162 | 100.74556 | 12 ft | 24 kts | 194° |
| 2026-05-07 21:16 | 13.70007 | 100.74516 | 12 ft | 23 kts | 195° |
| 2026-05-07 21:17 | 13.69854 | 100.74476 | 12 ft | 24 kts | 194° |
| 2026-05-07 21:17 | 13.69670 | 100.74427 | 12 ft | 30 kts | 194° |
| 2026-05-07 21:17 | 13.69455 | 100.74371 | 12 ft | 32 kts | 194° |
| 2026-05-07 21:17 | 13.69264 | 100.74320 | 12 ft | 17 kts | 194° |
| 2026-05-07 21:18 | 13.69191 | 100.74249 | 12 ft | 16 kts | 273° |
| 2026-05-07 21:18 | 13.69118 | 100.74181 | 12 ft | 16 kts | 195° |
| 2026-05-07 21:18 | 13.69007 | 100.74152 | 12 ft | 18 kts | 194° |
| 2026-05-07 21:18 | 13.68864 | 100.74114 | 13 ft | 24 kts | 194° |
| 2026-05-07 21:19 | 13.68685 | 100.74067 | 15 ft | 28 kts | 194° |
| 2026-05-07 21:19 | 13.68506 | 100.74020 | 13 ft | 26 kts | 194° |
| 2026-05-07 21:19 | 13.68338 | 100.73976 | 13 ft | 24 kts | 194° |
| 2026-05-07 21:19 | 13.68181 | 100.73935 | 12 ft | 23 kts | 194° |
| 2026-05-07 21:20 | 13.68030 | 100.73895 | 12 ft | 22 kts | 194° |
| 2026-05-07 21:20 | 13.67883 | 100.73856 | 14 ft | 21 kts | 194° |
| 2026-05-07 21:20 | 13.67740 | 100.73819 | 12 ft | 21 kts | 194° |
| 2026-05-07 21:20 | 13.67601 | 100.73783 | 12 ft | 20 kts | 194° |
| 2026-05-07 21:21 | 13.67467 | 100.73747 | 12 ft | 20 kts | 194° |
| 2026-05-07 21:21 | 13.67327 | 100.73710 | 14 ft | 22 kts | 194° |
| 2026-05-07 21:21 | 13.67201 | 100.73677 | 12 ft | 16 kts | 194° |
| 2026-05-07 21:21 | 13.67104 | 100.73637 | 14 ft | 15 kts | 235° |
| 2026-05-07 21:22 | 13.67111 | 100.73536 | 11 ft | 14 kts | 292° |
| 2026-05-07 21:22 | 13.67191 | 100.73486 | 12 ft | 13 kts | 352° |
| 2026-05-07 21:22 | 13.67212 | 100.73489 | 12 ft | 0 kts | 16° |
| 2026-05-07 21:24 | 13.67263 | 100.73503 | 12 ft | 33 kts | 14° |
| 2026-05-07 21:24 | 13.67727 | 100.73625 | 12 ft | 103 kts | 14° |
| 2026-05-07 21:24 | 13.68620 | 100.73860 | 15 ft | 159 kts | 14° |
| 2026-05-07 21:25 | 13.69755 | 100.74182 | 408 ft | 171 kts | 17° |
| 2026-05-07 21:25 | 13.70938 | 100.74499 | 1096 ft | 181 kts | 14° |
| 2026-05-07 21:25 | 13.72136 | 100.74800 | 2230 ft | 182 kts | 13° |
| 2026-05-07 21:25 | 13.73342 | 100.75103 | 3238 ft | 179 kts | 14° |
| 2026-05-07 21:26 | 13.74596 | 100.75430 | 3764 ft | 197 kts | 14° |
| 2026-05-07 21:26 | 13.76008 | 100.75800 | 3965 ft | 219 kts | 14° |
| 2026-05-07 21:26 | 13.77531 | 100.76201 | 4119 ft | 237 kts | 14° |
| 2026-05-07 21:26 | 13.79215 | 100.76643 | 4252 ft | 256 kts | 14° |
| 2026-05-07 21:27 | 13.81010 | 100.77116 | 4445 ft | 273 kts | 14° |
| 2026-05-07 21:27 | 13.82842 | 100.77699 | 4976 ft | 278 kts | 28° |
| 2026-05-07 21:27 | 13.84284 | 100.78939 | 5715 ft | 275 kts | 54° |
| 2026-05-07 21:27 | 13.85045 | 100.80759 | 6425 ft | 276 kts | 82° |
| 2026-05-07 21:28 | 13.84914 | 100.82722 | 7061 ft | 279 kts | 109° |
| 2026-05-07 21:28 | 13.83931 | 100.84431 | 7717 ft | 282 kts | 133° |
| 2026-05-07 21:28 | 13.82426 | 100.85735 | 8412 ft | 285 kts | 142° |
| 2026-05-07 21:28 | 13.80703 | 100.86740 | 9061 ft | 291 kts | 165° |
| 2026-05-07 21:29 | 13.78680 | 100.86754 | 9772 ft | 295 kts | 192° |
| 2026-05-07 21:29 | 13.76674 | 100.86233 | 10333 ft | 304 kts | 194° |
| 2026-05-07 21:29 | 13.74578 | 100.85654 | 10483 ft | 327 kts | 194° |
| 2026-05-07 21:29 | 13.72311 | 100.85022 | 10639 ft | 347 kts | 194° |
| 2026-05-07 21:30 | 13.69913 | 100.84357 | 10772 ft | 366 kts | 194° |
| 2026-05-07 21:30 | 13.67394 | 100.83666 | 10913 ft | 382 kts | 194° |
| 2026-05-07 21:30 | 13.64793 | 100.82959 | 11263 ft | 390 kts | 194° |
| 2026-05-07 21:30 | 13.62163 | 100.82248 | 11782 ft | 392 kts | 194° |
| 2026-05-07 21:31 | 13.59515 | 100.81535 | 12334 ft | 394 kts | 194° |
| 2026-05-07 21:31 | 13.56853 | 100.80821 | 12863 ft | 397 kts | 194° |
| 2026-05-07 21:31 | 13.54167 | 100.80102 | 13400 ft | 400 kts | 194° |
| 2026-05-07 21:31 | 13.51467 | 100.79379 | 13881 ft | 403 kts | 194° |
| 2026-05-07 21:32 | 13.48737 | 100.78650 | 14362 ft | 406 kts | 194° |
| 2026-05-07 21:32 | 13.46001 | 100.77918 | 14854 ft | 408 kts | 194° |
| 2026-05-07 21:32 | 13.43242 | 100.77181 | 15337 ft | 411 kts | 194° |
| 2026-05-07 21:32 | 13.40462 | 100.76438 | 15798 ft | 414 kts | 193° |
| 2026-05-07 21:33 | 13.37667 | 100.75691 | 16244 ft | 417 kts | 193° |
| 2026-05-07 21:33 | 13.34853 | 100.74940 | 16704 ft | 419 kts | 193° |
| 2026-05-07 21:33 | 13.32019 | 100.74183 | 17142 ft | 422 kts | 193° |
| 2026-05-07 21:33 | 13.29201 | 100.73430 | 17563 ft | 425 kts | 193° |
| 2026-05-07 21:34 | 13.26324 | 100.72662 | 17982 ft | 428 kts | 193° |
| 2026-05-07 21:34 | 13.23439 | 100.71892 | 18355 ft | 430 kts | 193° |
| 2026-05-07 21:34 | 13.20523 | 100.71114 | 18707 ft | 433 kts | 193° |
| 2026-05-07 21:34 | 13.17605 | 100.70335 | 19045 ft | 435 kts | 193° |
| 2026-05-07 21:35 | 13.14663 | 100.69550 | 19388 ft | 438 kts | 193° |
| 2026-05-07 21:35 | 13.11708 | 100.68763 | 19726 ft | 440 kts | 193° |
| 2026-05-07 21:35 | 13.08733 | 100.68004 | 20067 ft | 441 kts | 190° |
| 2026-05-07 21:35 | 13.05681 | 100.67616 | 20374 ft | 442 kts | 181° |
| 2026-05-07 21:36 | 13.02594 | 100.67531 | 20692 ft | 444 kts | 180° |
| 2026-05-07 21:36 | 12.99493 | 100.67481 | 21003 ft | 446 kts | 179° |
| 2026-05-07 21:36 | 12.96382 | 100.67436 | 21306 ft | 448 kts | 179° |
| 2026-05-07 21:36 | 12.93295 | 100.67384 | 21591 ft | 450 kts | 180° |
| 2026-05-07 21:37 | 12.90117 | 100.67319 | 21880 ft | 452 kts | 180° |
| 2026-05-07 21:37 | 12.86997 | 100.67246 | 22149 ft | 455 kts | 180° |
| 2026-05-07 21:37 | 12.83823 | 100.67166 | 22420 ft | 457 kts | 180° |
| 2026-05-07 21:37 | 12.80641 | 100.67082 | 22684 ft | 458 kts | 180° |
| 2026-05-07 21:38 | 12.77443 | 100.66997 | 22940 ft | 460 kts | 180° |
| 2026-05-07 21:38 | 12.74230 | 100.66912 | 23176 ft | 462 kts | 180° |
| 2026-05-07 21:38 | 12.71012 | 100.66826 | 23415 ft | 464 kts | 180° |
| 2026-05-07 21:38 | 12.67773 | 100.66741 | 23621 ft | 466 kts | 180° |
| 2026-05-07 21:39 | 12.64529 | 100.66655 | 23819 ft | 467 kts | 180° |
| 2026-05-07 21:39 | 12.61273 | 100.66569 | 24023 ft | 468 kts | 180° |
| 2026-05-07 21:39 | 12.58016 | 100.66484 | 24227 ft | 469 kts | 180° |
| 2026-05-07 21:39 | 12.54745 | 100.66398 | 24409 ft | 471 kts | 180° |
| 2026-05-07 21:40 | 12.51507 | 100.66313 | 24604 ft | 472 kts | 180° |
| 2026-05-07 21:40 | 12.48177 | 100.66226 | 24787 ft | 473 kts | 180° |
| 2026-05-07 21:40 | 12.44883 | 100.66139 | 24961 ft | 474 kts | 180° |
| 2026-05-07 21:40 | 12.41621 | 100.66054 | 25127 ft | 475 kts | 180° |
| 2026-05-07 21:41 | 12.38311 | 100.65967 | 25312 ft | 477 kts | 180° |
| 2026-05-07 21:41 | 12.34988 | 100.65880 | 25478 ft | 478 kts | 180° |
| 2026-05-07 21:41 | 12.31679 | 100.65793 | 25956 ft | 470 kts | 180° |
| 2026-05-07 21:41 | 12.28454 | 100.65707 | 26694 ft | 458 kts | 180° |
| 2026-05-07 21:42 | 12.25279 | 100.65624 | 27301 ft | 452 kts | 180° |
| 2026-05-07 21:42 | 12.22153 | 100.65542 | 27757 ft | 449 kts | 180° |
| 2026-05-07 21:42 | 12.19018 | 100.65461 | 28082 ft | 450 kts | 180° |
| 2026-05-07 21:42 | 12.15882 | 100.65379 | 28396 ft | 451 kts | 180° |
| 2026-05-07 21:43 | 12.12747 | 100.65298 | 28763 ft | 451 kts | 180° |
| 2026-05-07 21:43 | 12.09611 | 100.65215 | 29165 ft | 450 kts | 180° |
| 2026-05-07 21:43 | 12.06482 | 100.65134 | 29587 ft | 449 kts | 180° |
| 2026-05-07 21:43 | 12.03357 | 100.65052 | 29849 ft | 451 kts | 180° |
| 2026-05-07 21:44 | 11.97077 | 100.64895 | 29838 ft | 453 kts | 180° |
| 2026-05-07 21:44 | 11.90783 | 100.64738 | 29846 ft | 456 kts | 180° |
| 2026-05-07 21:45 | 11.84334 | 100.64578 | 29848 ft | 470 kts | 180° |
| 2026-05-07 21:45 | 11.77718 | 100.64413 | 29837 ft | 477 kts | 180° |
| 2026-05-07 21:46 | 11.71149 | 100.64248 | 29836 ft | 474 kts | 180° |
| 2026-05-07 21:46 | 11.64559 | 100.64082 | 29838 ft | 473 kts | 180° |
| 2026-05-07 21:47 | 11.57992 | 100.63918 | 29839 ft | 471 kts | 180° |
| 2026-05-07 21:47 | 11.51435 | 100.63754 | 29838 ft | 471 kts | 180° |
| 2026-05-07 21:48 | 11.44882 | 100.63590 | 29773 ft | 472 kts | 181° |
| 2026-05-07 21:48 | 11.41581 | 100.63508 | 29456 ft | 475 kts | 181° |
| 2026-05-07 21:48 | 11.38279 | 100.63425 | 29029 ft | 474 kts | 181° |
| 2026-05-07 21:49 | 11.34977 | 100.63343 | 28620 ft | 473 kts | 181° |
| 2026-05-07 21:49 | 11.31687 | 100.63261 | 28220 ft | 474 kts | 180° |
| 2026-05-07 21:49 | 11.28386 | 100.63178 | 27823 ft | 474 kts | 180° |
| 2026-05-07 21:49 | 11.25087 | 100.63096 | 27434 ft | 474 kts | 180° |
| 2026-05-07 21:50 | 11.21785 | 100.63013 | 27049 ft | 474 kts | 180° |
| 2026-05-07 21:50 | 11.18526 | 100.62932 | 26671 ft | 474 kts | 180° |
| 2026-05-07 21:50 | 11.15186 | 100.62849 | 26292 ft | 474 kts | 180° |
| 2026-05-07 21:50 | 11.11885 | 100.62767 | 25926 ft | 475 kts | 180° |
| 2026-05-07 21:51 | 11.08622 | 100.62685 | 25562 ft | 476 kts | 180° |
| 2026-05-07 21:51 | 11.05308 | 100.62603 | 25197 ft | 476 kts | 180° |
| 2026-05-07 21:51 | 11.02002 | 100.62520 | 24841 ft | 475 kts | 180° |
| 2026-05-07 21:51 | 10.98690 | 100.62438 | 24482 ft | 474 kts | 180° |
| 2026-05-07 21:52 | 10.95402 | 100.62356 | 24135 ft | 472 kts | 180° |
| 2026-05-07 21:52 | 10.92126 | 100.62274 | 23789 ft | 470 kts | 180° |
| 2026-05-07 21:52 | 10.88874 | 100.62193 | 23452 ft | 466 kts | 180° |
| 2026-05-07 21:52 | 10.85631 | 100.62112 | 23048 ft | 463 kts | 180° |
| 2026-05-07 21:53 | 10.82424 | 100.62032 | 22626 ft | 460 kts | 180° |
| 2026-05-07 21:53 | 10.79238 | 100.61953 | 22195 ft | 457 kts | 180° |
| 2026-05-07 21:53 | 10.76073 | 100.61875 | 21774 ft | 453 kts | 180° |
| 2026-05-07 21:53 | 10.72929 | 100.61796 | 21368 ft | 450 kts | 180° |
| 2026-05-07 21:54 | 10.69812 | 100.61719 | 20956 ft | 446 kts | 180° |
| 2026-05-07 21:54 | 10.66722 | 100.61642 | 20545 ft | 443 kts | 180° |
| 2026-05-07 21:54 | 10.63647 | 100.61566 | 20148 ft | 440 kts | 180° |
| 2026-05-07 21:54 | 10.60603 | 100.61490 | 19756 ft | 437 kts | 180° |
| 2026-05-07 21:55 | 10.57612 | 100.61416 | 19383 ft | 434 kts | 180° |
| 2026-05-07 21:55 | 10.54606 | 100.61342 | 18987 ft | 431 kts | 180° |
| 2026-05-07 21:55 | 10.51614 | 100.61267 | 18613 ft | 429 kts | 180° |
| 2026-05-07 21:55 | 10.48636 | 100.61193 | 18237 ft | 426 kts | 180° |
| 2026-05-07 21:56 | 10.45678 | 100.61120 | 17824 ft | 424 kts | 180° |
| 2026-05-07 21:56 | 10.42735 | 100.61047 | 17394 ft | 422 kts | 180° |
| 2026-05-07 21:56 | 10.39807 | 100.60974 | 16974 ft | 420 kts | 180° |
| 2026-05-07 21:56 | 10.36897 | 100.60902 | 16554 ft | 418 kts | 180° |
| 2026-05-07 21:57 | 10.33990 | 100.60830 | 16142 ft | 416 kts | 180° |
| 2026-05-07 21:57 | 10.31110 | 100.60759 | 15737 ft | 414 kts | 180° |
| 2026-05-07 21:57 | 10.28237 | 100.60688 | 15334 ft | 412 kts | 180° |
| 2026-05-07 21:57 | 10.25384 | 100.60617 | 14943 ft | 409 kts | 180° |
| 2026-05-07 21:58 | 10.23493 | 100.60570 | 14679 ft | 408 kts | 180° |
| 2026-05-07 21:58 | 10.20659 | 100.60500 | 14292 ft | 406 kts | 180° |
| 2026-05-07 21:58 | 10.17837 | 100.60430 | 13911 ft | 404 kts | 180° |
| 2026-05-07 21:58 | 10.15034 | 100.60361 | 13514 ft | 402 kts | 180° |
| 2026-05-07 21:59 | 10.12247 | 100.60292 | 13094 ft | 400 kts | 180° |
| 2026-05-07 21:59 | 10.09470 | 100.60223 | 12673 ft | 398 kts | 180° |
| 2026-05-07 21:59 | 10.06713 | 100.60155 | 12251 ft | 395 kts | 180° |
| 2026-05-07 21:59 | 10.03977 | 100.60087 | 11837 ft | 393 kts | 180° |
| 2026-05-07 22:00 | 10.01256 | 100.60020 | 11431 ft | 390 kts | 180° |
| 2026-05-07 22:00 | 9.98551 | 100.59953 | 11024 ft | 384 kts | 180° |
| 2026-05-07 22:00 | 9.95919 | 100.59887 | 10620 ft | 375 kts | 180° |
| 2026-05-07 22:00 | 9.93340 | 100.59823 | 10230 ft | 367 kts | 180° |
| 2026-05-07 22:01 | 9.90819 | 100.59761 | 9930 ft | 358 kts | 179° |
| 2026-05-07 22:01 | 9.88360 | 100.59700 | 9664 ft | 348 kts | 179° |
| 2026-05-07 22:01 | 9.85970 | 100.59641 | 9404 ft | 339 kts | 179° |
| 2026-05-07 22:01 | 9.83653 | 100.59583 | 9173 ft | 330 kts | 179° |
| 2026-05-07 22:02 | 9.81393 | 100.59368 | 8900 ft | 325 kts | 193° |
| 2026-05-07 22:02 | 9.79348 | 100.58461 | 8659 ft | 320 kts | 212° |
| 2026-05-07 22:02 | 9.77700 | 100.57013 | 8424 ft | 315 kts | 224° |
| 2026-05-07 22:02 | 9.76200 | 100.55417 | 8181 ft | 310 kts | 225° |
| 2026-05-07 22:03 | 9.74713 | 100.53825 | 7996 ft | 309 kts | 225° |
| 2026-05-07 22:03 | 9.73247 | 100.52277 | 7923 ft | 298 kts | 224° |
| 2026-05-07 22:03 | 9.71833 | 100.50784 | 7911 ft | 291 kts | 227° |
| 2026-05-07 22:03 | 9.70870 | 100.49004 | 7917 ft | 291 kts | 254° |
| 2026-05-07 22:04 | 9.70715 | 100.46950 | 7925 ft | 296 kts | 276° |
| 2026-05-07 22:04 | 9.71033 | 100.44872 | 7930 ft | 301 kts | 279° |
| 2026-05-07 22:04 | 9.71401 | 100.42784 | 7915 ft | 299 kts | 279° |
| 2026-05-07 22:04 | 9.71757 | 100.40698 | 7712 ft | 303 kts | 279° |
| 2026-05-07 22:05 | 9.72104 | 100.38579 | 7410 ft | 305 kts | 279° |
| 2026-05-07 22:05 | 9.72444 | 100.36462 | 7102 ft | 303 kts | 279° |
| 2026-05-07 22:05 | 9.72783 | 100.34359 | 6798 ft | 301 kts | 279° |
| 2026-05-07 22:05 | 9.73121 | 100.32263 | 6454 ft | 301 kts | 278° |
| 2026-05-07 22:06 | 9.73457 | 100.30169 | 6108 ft | 301 kts | 278° |
| 2026-05-07 22:06 | 9.73614 | 100.28059 | 5735 ft | 300 kts | 270° |
| 2026-05-07 22:06 | 9.73597 | 100.25947 | 5381 ft | 299 kts | 268° |
| 2026-05-07 22:06 | 9.73553 | 100.23867 | 5046 ft | 299 kts | 268° |
| 2026-05-07 22:07 | 9.73522 | 100.21809 | 5066 ft | 286 kts | 268° |
| 2026-05-07 22:07 | 9.73506 | 100.19810 | 5033 ft | 281 kts | 269° |
| 2026-05-07 22:07 | 9.73500 | 100.17849 | 4812 ft | 277 kts | 269° |
| 2026-05-07 22:07 | 9.73498 | 100.15883 | 4381 ft | 280 kts | 269° |
| 2026-05-07 22:08 | 9.73497 | 100.13915 | 3940 ft | 277 kts | 269° |
| 2026-05-07 22:08 | 9.73306 | 100.12002 | 3580 ft | 269 kts | 250° |
| 2026-05-07 22:08 | 9.72360 | 100.10433 | 3327 ft | 255 kts | 224° |
| 2026-05-07 22:08 | 9.70972 | 100.09418 | 3043 ft | 239 kts | 204° |
| 2026-05-07 22:09 | 9.69505 | 100.08743 | 2754 ft | 226 kts | 202° |
| 2026-05-07 22:09 | 9.68108 | 100.08113 | 2476 ft | 214 kts | 202° |
| 2026-05-07 22:09 | 9.66773 | 100.07509 | 2238 ft | 206 kts | 202° |
| 2026-05-07 22:09 | 9.65486 | 100.06935 | 1947 ft | 197 kts | 202° |
| 2026-05-07 22:10 | 9.64289 | 100.06397 | 1744 ft | 182 kts | 202° |
| 2026-05-07 22:10 | 9.63151 | 100.05887 | 1510 ft | 170 kts | 201° |
| 2026-05-07 22:10 | 9.62091 | 100.05633 | 1361 ft | 148 kts | 181° |
| 2026-05-07 22:10 | 9.61087 | 100.05659 | 1162 ft | 141 kts | 176° |
| 2026-05-07 22:11 | 9.60097 | 100.05728 | 979 ft | 144 kts | 174° |
| 2026-05-07 22:11 | 9.59096 | 100.05825 | 769 ft | 145 kts | 173° |
| 2026-05-07 22:11 | 9.58096 | 100.05921 | 575 ft | 143 kts | 174° |
| 2026-05-07 22:11 | 9.57099 | 100.06021 | 390 ft | 144 kts | 174° |
| 2026-05-07 22:12 | 9.56100 | 100.06119 | 207 ft | 146 kts | 174° |
| 2026-05-07 22:12 | 9.55093 | 100.06217 | 51 ft | 138 kts | 175° |
| 2026-05-07 22:12 | 9.54268 | 100.06296 | 47 ft | 82 kts | 175° |
| 2026-05-07 22:12 | 9.54012 | 100.06322 | 52 ft | 18 kts | 174° |
| 2026-05-07 22:13 | 9.53902 | 100.06311 | 52 ft | 16 kts | 187° |
| 2026-05-07 22:13 | 9.53847 | 100.06334 | 52 ft | 5 kts | 68° |
| 2026-05-07 22:13 | 9.53882 | 100.06336 | 52 ft | 6 kts | 351° |
| 2026-05-07 22:13 | 9.53970 | 100.06325 | 52 ft | 20 kts | 354° |
| 2026-05-07 22:14 | 9.54150 | 100.06308 | 52 ft | 29 kts | 356° |
| 2026-05-07 22:14 | 9.54356 | 100.06288 | 48 ft | 30 kts | 354° |
| 2026-05-07 22:14 | 9.54555 | 100.06270 | 52 ft | 28 kts | 354° |
| 2026-05-07 22:14 | 9.54743 | 100.06251 | 52 ft | 26 kts | 355° |
| 2026-05-07 22:15 | 9.54918 | 100.06233 | 48 ft | 24 kts | 354° |
| 2026-05-07 22:15 | 9.55010 | 100.06274 | 52 ft | 14 kts | 81° |
| 2026-05-07 22:15 | 9.55060 | 100.06305 | 52 ft | 9 kts | 354° |
| 2026-05-07 22:15 | 9.55122 | 100.06299 | 52 ft | 13 kts | 354° |
| 2026-05-07 22:16 | 9.55218 | 100.06290 | 52 ft | 9 kts | 354° |
| 2026-05-07 22:16 | 9.55226 | 100.06289 | 49 ft | 0 kts | 354° |
| 2026-05-07 22:16 | 9.55228 | 100.06289 | 49 ft | 2 kts | 356° |
| 2026-05-07 22:17 | 9.55242 | 100.06315 | 52 ft | 5 kts | 79° |
| 2026-05-07 22:17 | 9.55243 | 100.06325 | 52 ft | 0 kts | 84° |